Don Juan — WRB6521 — position and weather

sailwx.info

Track history (hours):
 
Tides and Currents Weather Stations Pressure Air Temp Water Temp Dewpoint Dewpoint Depression Visibility Wind Speed Wind Dir Waves Ship Positions

Don Juan

Owner: LYDDON, JOHN A, Bakersfield, CA. More information available from US FCC via Universal Licensing System and Coast Guard Vessel Documentation Center.

Last reported at 2016-Sep-28 08:21 UTC. Time now 2016-Sep-28 12:02 UTC.
Position N 33°37' W 117°55'.

Type: Pleasure craft. MMSI: 366328490.

Date/timePositionNaut miles runAvg speedWind from/ knotsBaromVisibWave heightAir tempDewpointWater temp
2016-Sep-28 08:21N 33°37' W 117°55'0 0.0
2016-Sep-28 02:24N 33°37' W 117°55'0 0.0
2016-Sep-28 01:33N 33°37' W 117°55'0 0.0
2016-Sep-27 23:33N 33°37' W 117°55'0 0.0
2016-Sep-27 19:24N 33°37' W 117°55'0 0.0
2016-Sep-27 14:24N 33°37' W 117°55'0 0.0
2016-Sep-27 13:33N 33°37' W 117°55'0 0.0
2016-Sep-27 10:30N 33°37' W 117°55'0 0.0
2016-Sep-27 00:33N 33°37' W 117°55'0 0.0
2016-Sep-26 20:30N 33°37' W 117°55'0 0.0
2016-Sep-26 19:30N 33°37' W 117°55'0 0.0
2016-Sep-26 15:33N 33°37' W 117°55'0 0.0
2016-Sep-26 13:30N 33°37' W 117°55'0 0.0
2016-Sep-26 11:03N 33°37' W 117°55'0 0.0
2016-Sep-26 02:21N 33°37' W 117°55'4 5.3
2016-Sep-26 01:33N 33°33' W 117°53'11 8.6
2016-Sep-26 00:16N 33°24' W 118°01'44 6.5
2016-Sep-25 17:30N 32°44' W 118°25'0 0.0
2016-Sep-25 16:24N 32°44' W 118°25'0 0.2
2016-Sep-25 15:29N 32°45' W 118°25'1 1.3
2016-Sep-25 14:33N 32°44' W 118°26'11 5.4
2016-Sep-25 12:33N 32°53' W 118°20'10 9.6
2016-Sep-25 11:33N 33°03' W 118°22'10 9.9
2016-Sep-25 10:33N 33°12' W 118°19'9 8.8
2016-Sep-25 09:33N 33°21' W 118°19'18 2.0
2016-Sep-25 00:25N 33°30' W 118°00'9 4.6
2016-Sep-24 22:33N 33°37' W 117°55'0 0.0
2016-Sep-24 21:30N 33°37' W 117°55'0 0.0
2016-Sep-24 19:30N 33°37' W 117°55'0 0.0
2016-Sep-24 18:33N 33°37' W 117°55'0 0.0
2016-Sep-24 17:33N 33°37' W 117°55'0 0.0
2016-Sep-24 16:33N 33°37' W 117°55'0 0.0
2016-Sep-24 14:30N 33°37' W 117°55'0 0.0
2016-Sep-24 12:15N 33°37' W 117°55'0 0.0
2016-Sep-24 10:33N 33°37' W 117°55'0 0.0
2016-Sep-24 09:30N 33°37' W 117°55'0 0.0
2016-Sep-24 03:27N 33°37' W 117°55'0 0.0
2016-Sep-24 02:27N 33°37' W 117°55'0 0.0
2016-Sep-24 01:21N 33°37' W 117°55'0 0.0
2016-Sep-24 00:33N 33°37' W 117°55'0 0.0
2016-Sep-23 19:33N 33°37' W 117°55'0 0.0
2016-Sep-23 16:33N 33°37' W 117°55'0 0.0
2016-Sep-23 15:33N 33°37' W 117°55'0 0.0
2016-Sep-23 13:33N 33°37' W 117°55'0 0.0
2016-Sep-23 09:24N 33°37' W 117°55'0 0.0
2016-Sep-23 06:24N 33°37' W 117°55'0 0.0
2016-Sep-23 03:27N 33°37' W 117°55'0 0.0
2016-Sep-23 02:27N 33°37' W 117°55'0 0.0
2016-Sep-23 01:33N 33°37' W 117°55'0 0.0
2016-Sep-23 00:33N 33°37' W 117°55'0 0.0
2016-Sep-22 23:33N 33°37' W 117°55'0 0.0
2016-Sep-22 20:33N 33°37' W 117°55'0 0.0
2016-Sep-22 04:27N 33°37' W 117°55'0 0.0
2016-Sep-22 03:21N 33°37' W 117°55'0 0.0
2016-Sep-22 00:33N 33°37' W 117°55'0 0.0
2016-Sep-21 23:33N 33°37' W 117°55'0 0.0
2016-Sep-21 22:33N 33°37' W 117°55'0 0.0
2016-Sep-21 19:33N 33°37' W 117°55'0 0.0
2016-Sep-21 16:33N 33°37' W 117°55'0 0.0
2016-Sep-21 09:33N 33°37' W 117°55'0 0.0
2016-Sep-21 08:27N 33°37' W 117°55'0 0.0
2016-Sep-20 17:27N 33°37' W 117°55'0 0.0
2016-Sep-20 02:24N 33°37' W 117°55'0 0.0
2016-Sep-19 23:24N 33°37' W 117°55'0 0.0
2016-Sep-19 19:30N 33°37' W 117°55'0 0.0
2016-Sep-19 18:30N 33°37' W 117°55'0 0.0
2016-Sep-19 16:27N 33°37' W 117°55'0 0.0
2016-Sep-19 14:30N 33°37' W 117°55'0 0.0
2016-Sep-19 13:33N 33°37' W 117°55'0 0.0
2016-Sep-19 12:33N 33°37' W 117°55'0 0.0
2016-Sep-19 11:06N 33°37' W 117°55'0 0.0
2016-Sep-19 09:30N 33°37' W 117°55'0 0.0
2016-Sep-19 07:30N 33°37' W 117°55'0 0.0
2016-Sep-19 03:21N 33°37' W 117°55'0 0.0
2016-Sep-19 02:30N 33°37' W 117°55'0 0.0
2016-Sep-19 00:27N 33°37' W 117°55'0 0.0
2016-Sep-18 19:30N 33°37' W 117°55'0 0.0
2016-Sep-18 15:33N 33°37' W 117°55'0 0.0
2016-Sep-18 14:30N 33°37' W 117°55'0 0.0
2016-Sep-18 10:30N 33°37' W 117°55'0 0.0
2016-Sep-18 09:33N 33°37' W 117°55'  
Track history (hours):
 
Tides and Currents Weather Stations Pressure Air Temp Water Temp Dewpoint Dewpoint Depression Visibility Wind Speed Wind Dir Waves Ship Positions

Don Juan

Owner: LYDDON, JOHN A, Bakersfield, CA. More information available from US FCC via Universal Licensing System and Coast Guard Vessel Documentation Center.

Last reported at 2016-Sep-28 08:21 UTC. Time now 2016-Sep-28 12:02 UTC.
Position N 33°37' W 117°55'.

Type: Pleasure craft. MMSI: 366328490.

Date/timePositionNaut miles runAvg speedWind from/ knotsBaromVisibWave heightAir tempDewpointWater temp
2016-Sep-28 08:21N 33°37' W 117°55'0 0.0
2016-Sep-28 02:24N 33°37' W 117°55'0 0.0
2016-Sep-28 01:33N 33°37' W 117°55'0 0.0
2016-Sep-27 23:33N 33°37' W 117°55'0 0.0
2016-Sep-27 19:24N 33°37' W 117°55'0 0.0
2016-Sep-27 14:24N 33°37' W 117°55'0 0.0
2016-Sep-27 13:33N 33°37' W 117°55'0 0.0
2016-Sep-27 10:30N 33°37' W 117°55'0 0.0
2016-Sep-27 00:33N 33°37' W 117°55'0 0.0
2016-Sep-26 20:30N 33°37' W 117°55'0 0.0
2016-Sep-26 19:30N 33°37' W 117°55'0 0.0
2016-Sep-26 15:33N 33°37' W 117°55'0 0.0
2016-Sep-26 13:30N 33°37' W 117°55'0 0.0
2016-Sep-26 11:03N 33°37' W 117°55'0 0.0
2016-Sep-26 02:21N 33°37' W 117°55'4 5.3
2016-Sep-26 01:33N 33°33' W 117°53'11 8.6
2016-Sep-26 00:16N 33°24' W 118°01'44 6.5
2016-Sep-25 17:30N 32°44' W 118°25'0 0.0
2016-Sep-25 16:24N 32°44' W 118°25'0 0.2
2016-Sep-25 15:29N 32°45' W 118°25'1 1.3
2016-Sep-25 14:33N 32°44' W 118°26'11 5.4
2016-Sep-25 12:33N 32°53' W 118°20'10 9.6
2016-Sep-25 11:33N 33°03' W 118°22'10 9.9
2016-Sep-25 10:33N 33°12' W 118°19'9 8.8
2016-Sep-25 09:33N 33°21' W 118°19'18 2.0
2016-Sep-25 00:25N 33°30' W 118°00'9 4.6
2016-Sep-24 22:33N 33°37' W 117°55'0 0.0
2016-Sep-24 21:30N 33°37' W 117°55'0 0.0
2016-Sep-24 19:30N 33°37' W 117°55'0 0.0
2016-Sep-24 18:33N 33°37' W 117°55'0 0.0
2016-Sep-24 17:33N 33°37' W 117°55'0 0.0
2016-Sep-24 16:33N 33°37' W 117°55'0 0.0
2016-Sep-24 14:30N 33°37' W 117°55'0 0.0
2016-Sep-24 12:15N 33°37' W 117°55'0 0.0
2016-Sep-24 10:33N 33°37' W 117°55'0 0.0
2016-Sep-24 09:30N 33°37' W 117°55'0 0.0
2016-Sep-24 03:27N 33°37' W 117°55'0 0.0
2016-Sep-24 02:27N 33°37' W 117°55'0 0.0
2016-Sep-24 01:21N 33°37' W 117°55'0 0.0
2016-Sep-24 00:33N 33°37' W 117°55'0 0.0
2016-Sep-23 19:33N 33°37' W 117°55'0 0.0
2016-Sep-23 16:33N 33°37' W 117°55'0 0.0
2016-Sep-23 15:33N 33°37' W 117°55'0 0.0
2016-Sep-23 13:33N 33°37' W 117°55'0 0.0
2016-Sep-23 09:24N 33°37' W 117°55'0 0.0
2016-Sep-23 06:24N 33°37' W 117°55'0 0.0
2016-Sep-23 03:27N 33°37' W 117°55'0 0.0
2016-Sep-23 02:27N 33°37' W 117°55'0 0.0
2016-Sep-23 01:33N 33°37' W 117°55'0 0.0
2016-Sep-23 00:33N 33°37' W 117°55'0 0.0
2016-Sep-22 23:33N 33°37' W 117°55'0 0.0
2016-Sep-22 20:33N 33°37' W 117°55'0 0.0
2016-Sep-22 04:27N 33°37' W 117°55'0 0.0
2016-Sep-22 03:21N 33°37' W 117°55'0 0.0
2016-Sep-22 00:33N 33°37' W 117°55'0 0.0
2016-Sep-21 23:33N 33°37' W 117°55'0 0.0
2016-Sep-21 22:33N 33°37' W 117°55'0 0.0
2016-Sep-21 19:33N 33°37' W 117°55'0 0.0
2016-Sep-21 16:33N 33°37' W 117°55'0 0.0
2016-Sep-21 09:33N 33°37' W 117°55'0 0.0
2016-Sep-21 08:27N 33°37' W 117°55'0 0.0
2016-Sep-20 17:27N 33°37' W 117°55'0 0.0
2016-Sep-20 02:24N 33°37' W 117°55'0 0.0
2016-Sep-19 23:24N 33°37' W 117°55'0 0.0
2016-Sep-19 19:30N 33°37' W 117°55'0 0.0
2016-Sep-19 18:30N 33°37' W 117°55'0 0.0
2016-Sep-19 16:27N 33°37' W 117°55'0 0.0
2016-Sep-19 14:30N 33°37' W 117°55'0 0.0
2016-Sep-19 13:33N 33°37' W 117°55'0 0.0
2016-Sep-19 12:33N 33°37' W 117°55'0 0.0
2016-Sep-19 11:06N 33°37' W 117°55'0 0.0
2016-Sep-19 09:30N 33°37' W 117°55'0 0.0
2016-Sep-19 07:30N 33°37' W 117°55'0 0.0
2016-Sep-19 03:21N 33°37' W 117°55'0 0.0
2016-Sep-19 02:30N 33°37' W 117°55'0 0.0
2016-Sep-19 00:27N 33°37' W 117°55'0 0.0
2016-Sep-18 19:30N 33°37' W 117°55'0 0.0
2016-Sep-18 15:33N 33°37' W 117°55'0 0.0
2016-Sep-18 14:30N 33°37' W 117°55'0 0.0
2016-Sep-18 10:30N 33°37' W 117°55'0 0.0
2016-Sep-18 09:33N 33°37' W 117°55'  

Dump ship's entire track history